Screenshot 2020-03-10 at 16.31.56

Aviation Academy

Online Aviation Academy is a modern learning system, bundled with key enterprise functionality ranging from skill-gap analysis and branch management to tailor-made reports. Our unique TCExam is a system for electronic exams (also know as CBA – Computer-Based Assessment, CBT – Computer-Based Testing or e-exam) that enables educators and trainers to  deliver, and report on quizzes, tests and exams.

Koos Myburgh’s book has become a popular training tool for many helicopter pilots starting out on their aviation path. The book is detailed and informative.

About the author

He joined the South African Air Force as a pupil pilot in 1979. Completed training on Harvards and the Alouette III; received his Wings in 1981.
During his 18 year Air Force career he also flew the Puma, Oryx (Super Puma) and the Dauphin. He gave instruction on all the types. He qualified as a NVIS instructor, as well.
After his resignation, he was employed as CFI at Helicopters Unlimited and later as Director Training at the Starlite Aviation Group.
Since his qualification as Instructor during 1988, he gathered 8000 hours of instruction and a total of 12600 hours.
He holds ratings on 32 types/variants of aircraft and was appointed as a SACAA Designated Flight Examiner in 2012.

ONLINE LEARNING

Don’t just read about it, Learn about it…

Let us help you reach the sky.

Durban FALE METAR & TAF

FALE 080200Z VRB01KT 9999 FEW040 SCT056 BKN098 13/12 Q1031 NOSIG

TAF FALE 071600Z 0718/0824 22012KT 9999 BKN020 TX20/0812Z TN10/0804Z PROB30 TEMPO 0718/0808 5000 SHRA BKN010 BKN030 BECMG 0720/0722 28008KT BECMG 0804/0806 34005KT BECMG 0810/0812 04015KT CAVOK BECMG 0814/0816 04015G25KT BECMG 0820/0822 02012KT

George FAGG METAR & TAF

FAGG 080235Z 06006KT CAVOK 09/05 Q1025

TAF FAGG 071600Z 0718/0818 05005KT CAVOK TX24/0812Z TN08/0806Z

error: NO! Content is protected !!
Scroll to Top